createdAt,value
2019-01-30T00:00:52.319Z,89.43
2019-01-30T00:03:23.677Z,89.49
2019-01-30T00:05:54.620Z,89.68
2019-01-30T00:08:25.658Z,89.57
2019-01-30T00:10:56.604Z,89.56
2019-01-30T00:13:27.506Z,89.70
2019-01-30T00:15:58.487Z,89.82
2019-01-30T00:18:29.824Z,90.07
2019-01-30T00:21:00.831Z,90.37
2019-01-30T00:23:32.113Z,90.23
2019-01-30T00:26:03.020Z,90.03
2019-01-30T00:28:34.114Z,90.02
2019-01-30T00:31:05.220Z,89.89
2019-01-30T00:33:36.188Z,89.33
2019-01-30T00:36:07.198Z,89.28
2019-01-30T00:38:38.171Z,89.55
2019-01-30T00:41:09.239Z,89.86
2019-01-30T00:43:40.226Z,89.87
2019-01-30T00:46:11.194Z,90.04
2019-01-30T00:48:42.179Z,90.73
2019-01-30T00:51:13.152Z,90.81
2019-01-30T00:53:44.103Z,91.23
2019-01-30T00:56:14.995Z,91.26
2019-01-30T00:58:45.895Z,91.44
2019-01-30T01:01:16.824Z,91.57
2019-01-30T01:03:47.759Z,91.54
2019-01-30T01:06:18.732Z,91.77
2019-01-30T01:08:49.661Z,91.82
2019-01-30T01:11:20.607Z,91.90
2019-01-30T01:13:51.615Z,91.92
2019-01-30T01:16:22.575Z,91.79
2019-01-30T01:18:53.678Z,91.68
2019-01-30T01:21:24.954Z,91.63
2019-01-30T01:23:56.481Z,91.82
2019-01-30T01:26:27.441Z,91.67
2019-01-30T01:28:58.336Z,91.59
2019-01-30T01:31:29.252Z,91.60
2019-01-30T01:34:00.464Z,91.68
2019-01-30T01:36:31.435Z,92.03
2019-01-30T01:39:02.350Z,92.60
2019-01-30T01:41:33.326Z,92.70
2019-01-30T01:44:04.382Z,92.69
2019-01-30T01:46:35.597Z,92.63
2019-01-30T01:49:06.699Z,92.55
2019-01-30T01:51:37.619Z,92.35
2019-01-30T01:54:08.552Z,92.40
2019-01-30T01:56:39.766Z,92.23
2019-01-30T01:59:10.650Z,92.24
2019-01-30T02:01:41.640Z,92.23
2019-01-30T02:04:12.545Z,92.15
2019-01-30T02:06:43.484Z,92.38
2019-01-30T02:09:14.560Z,92.53
2019-01-30T02:11:45.498Z,92.54
2019-01-30T02:14:16.454Z,92.58
2019-01-30T02:16:47.677Z,92.68
2019-01-30T02:19:19.165Z,92.62
2019-01-30T02:21:50.082Z,92.46
2019-01-30T02:24:21.072Z,92.45
2019-01-30T02:26:52.021Z,92.46
2019-01-30T02:29:23.214Z,92.47
2019-01-30T02:31:54.140Z,92.47
2019-01-30T02:34:25.152Z,92.46
2019-01-30T02:36:59.725Z,92.62
2019-01-30T02:39:30.688Z,92.36
2019-01-30T02:42:01.621Z,92.32
2019-01-30T02:44:32.629Z,92.27
2019-01-30T02:47:03.560Z,93.00
2019-01-30T02:49:34.761Z,93.29
2019-01-30T02:52:06.110Z,93.46
2019-01-30T02:54:37.122Z,93.53
2019-01-30T02:57:08.014Z,93.59
2019-01-30T02:59:38.965Z,93.60
2019-01-30T03:02:20.421Z,93.41
2019-01-30T03:04:51.411Z,93.30
2019-01-30T03:07:22.317Z,93.07
2019-01-30T03:09:53.239Z,92.90
2019-01-30T03:12:24.155Z,92.60
2019-01-30T03:14:55.055Z,92.46
2019-01-30T03:17:26.346Z,92.44
2019-01-30T03:19:57.240Z,92.39
2019-01-30T03:22:28.421Z,92.30
2019-01-30T03:24:59.656Z,92.20
2019-01-30T03:27:30.656Z,92.25
2019-01-30T03:30:01.615Z,91.86
2019-01-30T03:32:32.821Z,91.57
2019-01-30T03:35:03.750Z,91.47
2019-01-30T03:37:34.675Z,90.95
2019-01-30T03:40:06.847Z,90.76
2019-01-30T03:42:37.832Z,90.69
2019-01-30T03:45:09.553Z,90.07
2019-01-30T03:47:40.433Z,89.64
2019-01-30T03:50:12.494Z,89.34
2019-01-30T03:52:43.389Z,88.94
2019-01-30T03:55:15.990Z,88.51
2019-01-30T03:57:46.897Z,87.95
2019-01-30T04:00:23.873Z,87.67
2019-01-30T04:02:55.605Z,87.40
2019-01-30T04:05:26.739Z,87.29
2019-01-30T04:07:58.068Z,87.06
2019-01-30T04:10:28.947Z,87.08
2019-01-30T04:12:59.891Z,87.25
2019-01-30T04:15:30.791Z,87.01
2019-01-30T04:18:01.756Z,87.26
2019-01-30T04:20:32.737Z,87.30
2019-01-30T04:23:03.651Z,87.24
2019-01-30T04:25:34.947Z,87.18
2019-01-30T04:28:05.973Z,87.17
2019-01-30T04:30:36.872Z,87.21
2019-01-30T04:33:07.900Z,87.49
2019-01-30T04:35:38.863Z,87.38
2019-01-30T04:38:10.049Z,87.36
2019-01-30T04:40:40.963Z,87.53
2019-01-30T04:43:11.865Z,87.86
2019-01-30T04:45:42.804Z,88.15
2019-01-30T04:48:13.707Z,88.18
2019-01-30T04:50:44.727Z,88.08
2019-01-30T04:53:15.918Z,88.11
2019-01-30T04:55:46.830Z,88.14
2019-01-30T04:58:17.754Z,88.45
2019-01-30T05:00:48.671Z,88.55
2019-01-30T05:03:19.633Z,88.54
2019-01-30T05:05:50.950Z,88.70
2019-01-30T05:08:21.930Z,88.82
2019-01-30T05:10:52.973Z,89.04
2019-01-30T05:13:23.864Z,88.87
2019-01-30T05:15:54.826Z,88.69
2019-01-30T05:18:26.168Z,88.76
2019-01-30T05:20:57.155Z,88.93
2019-01-30T05:23:28.179Z,89.11
2019-01-30T05:26:00.061Z,89.15
2019-01-30T05:28:31.139Z,89.28
2019-01-30T05:31:02.048Z,89.18
2019-01-30T05:33:32.940Z,88.70
2019-01-30T05:36:03.861Z,88.88
2019-01-30T05:38:34.794Z,88.99
2019-01-30T05:41:05.835Z,89.07
2019-01-30T05:43:36.754Z,89.20
2019-01-30T05:46:07.731Z,88.92
2019-01-30T05:48:38.720Z,89.08
2019-01-30T05:51:09.711Z,89.23
2019-01-30T05:53:40.709Z,89.33
2019-01-30T05:56:11.608Z,89.44
2019-01-30T05:58:42.576Z,89.32
2019-01-30T06:01:13.600Z,89.03
2019-01-30T06:03:44.722Z,88.83
2019-01-30T06:06:15.994Z,88.96
2019-01-30T06:08:47.187Z,89.08
2019-01-30T06:11:18.457Z,88.68
2019-01-30T06:13:49.419Z,88.71
2019-01-30T06:16:20.327Z,88.82
2019-01-30T06:18:51.580Z,88.70
2019-01-30T06:21:22.571Z,88.42
2019-01-30T06:23:53.471Z,88.18
2019-01-30T06:26:24.519Z,88.08
2019-01-30T06:28:55.402Z,87.82
2019-01-30T06:31:28.675Z,87.81
2019-01-30T06:33:59.657Z,87.59
2019-01-30T06:36:30.574Z,87.70
2019-01-30T06:39:01.551Z,87.37
2019-01-30T06:41:32.775Z,87.46
2019-01-30T06:44:04.144Z,87.50
2019-01-30T06:46:35.063Z,87.57
2019-01-30T06:49:05.976Z,87.35
2019-01-30T06:51:37.300Z,86.98
2019-01-30T06:54:08.290Z,86.79
2019-01-30T06:56:39.253Z,86.62
2019-01-30T06:59:10.162Z,86.58
2019-01-30T07:01:41.263Z,86.39
2019-01-30T07:04:12.252Z,86.36
2019-01-30T07:06:43.166Z,86.20
2019-01-30T07:09:14.170Z,86.37
2019-01-30T07:11:45.139Z,86.30
2019-01-30T07:14:16.125Z,86.19
2019-01-30T07:16:47.047Z,85.74
2019-01-30T07:19:18.063Z,85.98
2019-01-30T07:21:49.039Z,85.83
2019-01-30T07:24:19.932Z,86.03
2019-01-30T07:26:50.987Z,85.69
2019-01-30T07:29:22.174Z,85.73
2019-01-30T07:31:53.074Z,85.28
2019-01-30T07:34:24.357Z,84.97
2019-01-30T07:36:55.316Z,84.78
2019-01-30T07:39:26.792Z,84.32
2019-01-30T07:41:57.725Z,84.14
2019-01-30T07:44:28.631Z,84.53
2019-01-30T07:46:59.665Z,84.42
2019-01-30T07:49:31.169Z,83.98
2019-01-30T07:52:02.095Z,83.70
2019-01-30T07:54:33.044Z,83.93
2019-01-30T07:57:03.947Z,83.58
2019-01-30T07:59:34.909Z,83.18
2019-01-30T08:02:06.150Z,83.35
2019-01-30T08:04:37.823Z,83.55
2019-01-30T08:07:08.824Z,83.40
2019-01-30T08:09:39.712Z,83.32
2019-01-30T08:12:12.580Z,82.92
2019-01-30T08:14:43.333Z,83.25
2019-01-30T08:17:14.394Z,83.03
2019-01-30T08:19:45.390Z,82.69
2019-01-30T08:22:16.327Z,82.24
2019-01-30T08:24:47.604Z,82.17
2019-01-30T08:27:18.929Z,82.36
2019-01-30T08:29:49.969Z,83.30
2019-01-30T08:32:22.360Z,82.70
2019-01-30T08:34:53.404Z,82.16
2019-01-30T08:37:24.403Z,82.26
2019-01-30T08:39:55.403Z,82.52
2019-01-30T08:42:26.324Z,82.09
2019-01-30T08:44:57.314Z,81.68
2019-01-30T08:47:28.517Z,81.13
2019-01-30T08:49:59.711Z,81.44
2019-01-30T08:52:30.937Z,81.24
2019-01-30T08:55:01.961Z,81.05
2019-01-30T08:57:33.332Z,80.28
2019-01-30T09:00:04.332Z,80.20
2019-01-30T09:02:35.405Z,79.71
2019-01-30T09:05:07.897Z,79.26
2019-01-30T09:07:44.305Z,79.06
2019-01-30T09:10:18.298Z,79.42
2019-01-30T09:12:49.516Z,79.28
2019-01-30T09:15:22.856Z,79.13
2019-01-30T09:17:53.955Z,78.08
2019-01-30T09:20:25.991Z,78.32
2019-01-30T09:22:57.063Z,77.88
2019-01-30T09:25:30.291Z,77.01
2019-01-30T09:28:02.453Z,77.19
2019-01-30T09:30:39.072Z,77.27
2019-01-30T09:33:12.160Z,76.67
2019-01-30T09:35:43.069Z,76.03
2019-01-30T09:38:14.102Z,75.91
2019-01-30T09:40:45.337Z,77.02
2019-01-30T09:43:16.218Z,76.73
2019-01-30T09:45:47.148Z,77.00
2019-01-30T09:48:18.090Z,76.84
2019-01-30T09:50:49.026Z,76.64
2019-01-30T09:53:19.973Z,76.87
2019-01-30T09:55:50.926Z,76.72
2019-01-30T09:58:23.931Z,76.35
2019-01-30T10:00:54.775Z,76.00
2019-01-30T10:03:35.805Z,75.59
2019-01-30T10:05:58.355Z,75.71
2019-01-30T10:08:29.285Z,74.86
2019-01-30T10:11:00.198Z,74.50
2019-01-30T10:13:31.453Z,73.74
2019-01-30T10:16:02.420Z,73.72
2019-01-30T10:18:33.394Z,72.58
2019-01-30T10:21:04.832Z,72.64
2019-01-30T10:23:35.843Z,71.10
2019-01-30T10:26:06.965Z,71.53
2019-01-30T10:28:37.897Z,70.70
2019-01-30T10:31:08.797Z,69.41
2019-01-30T10:33:46.336Z,69.05
2019-01-30T10:36:13.023Z,68.14
2019-01-30T10:38:44.225Z,68.38
2019-01-30T10:41:15.270Z,67.73
2019-01-30T10:43:46.172Z,66.55
2019-01-30T10:46:17.107Z,67.12
2019-01-30T10:48:48.043Z,66.21
2019-01-30T10:51:18.948Z,66.39
2019-01-30T10:53:49.923Z,66.57
2019-01-30T10:56:20.929Z,67.12
2019-01-30T10:58:51.895Z,66.82
2019-01-30T11:01:22.878Z,66.16
2019-01-30T11:03:57.537Z,67.00
2019-01-30T11:06:26.508Z,67.03
2019-01-30T11:08:57.458Z,66.75
2019-01-30T11:11:28.343Z,66.75
2019-01-30T11:13:59.366Z,66.37
2019-01-30T11:16:30.316Z,66.13
2019-01-30T11:19:01.632Z,67.00
2019-01-30T11:21:32.545Z,66.63
2019-01-30T11:24:03.516Z,66.67
2019-01-30T11:26:36.428Z,66.71
2019-01-30T11:29:07.275Z,66.77
2019-01-30T11:31:38.255Z,66.09
2019-01-30T11:34:09.743Z,66.74
2019-01-30T11:36:40.922Z,66.50
2019-01-30T11:39:12.127Z,66.84
2019-01-30T11:41:43.051Z,66.80
2019-01-30T11:44:14.356Z,66.44
2019-01-30T11:46:45.243Z,67.43
2019-01-30T11:49:16.522Z,67.78
2019-01-30T11:51:47.736Z,67.60
2019-01-30T11:54:18.623Z,67.56
2019-01-30T11:56:50.449Z,67.45
2019-01-30T11:59:21.396Z,68.19
2019-01-30T12:01:52.309Z,68.32
2019-01-30T12:04:23.242Z,68.47
2019-01-30T12:06:54.500Z,68.99
2019-01-30T12:09:25.479Z,69.46
2019-01-30T12:11:56.438Z,69.40
2019-01-30T12:14:27.501Z,69.06
2019-01-30T12:16:58.687Z,68.96
2019-01-30T12:19:29.871Z,68.44
2019-01-30T12:22:01.170Z,68.66
2019-01-30T12:24:32.061Z,69.16
2019-01-30T12:27:03.007Z,69.55
2019-01-30T12:29:34.568Z,69.43
2019-01-30T12:32:05.730Z,69.20
2019-01-30T12:34:37.536Z,68.57
2019-01-30T12:37:09.188Z,69.54
2019-01-30T12:39:40.096Z,69.17
2019-01-30T12:42:11.001Z,69.45
2019-01-30T12:44:42.324Z,69.46
2019-01-30T12:47:19.666Z,69.66
2019-01-30T12:49:45.993Z,69.91
2019-01-30T12:52:17.068Z,69.94
2019-01-30T12:54:48.062Z,69.71
2019-01-30T12:57:18.996Z,70.11
2019-01-30T12:59:49.984Z,70.45
2019-01-30T13:02:21.295Z,70.22
2019-01-30T13:04:52.191Z,69.71
2019-01-30T13:07:23.665Z,70.09
2019-01-30T13:09:54.872Z,70.52
2019-01-30T13:12:26.254Z,70.13
2019-01-30T13:14:57.231Z,69.52
2019-01-30T13:17:28.645Z,69.46
2019-01-30T13:19:59.616Z,69.83
2019-01-30T13:22:30.552Z,70.26
2019-01-30T13:25:01.863Z,70.33
2019-01-30T13:27:32.768Z,70.71
2019-01-30T13:30:04.014Z,68.95
2019-01-30T13:32:35.317Z,69.10
2019-01-30T13:35:07.374Z,69.31
2019-01-30T13:37:38.354Z,69.10
2019-01-30T13:40:16.106Z,69.40
2019-01-30T13:42:47.389Z,69.61
2019-01-30T13:45:18.476Z,69.63
2019-01-30T13:47:49.787Z,69.07
2019-01-30T13:50:25.595Z,69.07
2019-01-30T13:52:56.622Z,69.92
2019-01-30T13:55:28.422Z,70.00
2019-01-30T13:57:59.405Z,70.09
2019-01-30T14:00:36.279Z,69.98
2019-01-30T14:03:08.509Z,70.34
2019-01-30T14:05:39.424Z,70.42
2019-01-30T14:08:12.781Z,70.75
2019-01-30T14:10:43.784Z,71.14
2019-01-30T14:13:14.702Z,71.55
2019-01-30T14:15:45.628Z,72.41
2019-01-30T14:18:17.144Z,73.35
2019-01-30T14:20:48.126Z,74.76
2019-01-30T14:23:19.147Z,75.55
2019-01-30T14:25:50.192Z,75.66
2019-01-30T14:28:21.195Z,75.99
2019-01-30T14:30:52.202Z,76.39
2019-01-30T14:33:23.162Z,76.98
2019-01-30T14:35:54.240Z,77.03
2019-01-30T14:38:25.598Z,77.03
2019-01-30T14:40:56.830Z,76.91
2019-01-30T14:43:27.788Z,77.45
2019-01-30T14:45:59.038Z,76.84
2019-01-30T14:48:30.126Z,75.92
2019-01-30T14:51:01.101Z,75.22
2019-01-30T14:53:32.327Z,74.59
2019-01-30T14:56:03.491Z,74.32
2019-01-30T14:58:34.988Z,73.89
2019-01-30T15:01:06.495Z,73.40
2019-01-30T15:03:37.441Z,73.22
2019-01-30T15:06:08.449Z,73.28
2019-01-30T15:08:40.057Z,72.91
2019-01-30T15:11:11.038Z,72.61
2019-01-30T15:13:42.045Z,72.91
2019-01-30T15:16:13.150Z,72.10
2019-01-30T15:18:44.181Z,72.13
2019-01-30T15:21:15.189Z,72.25
2019-01-30T15:23:46.169Z,72.23
2019-01-30T15:26:17.084Z,72.50
2019-01-30T15:28:48.335Z,72.52
2019-01-30T15:31:19.537Z,73.07
2019-01-30T15:33:50.509Z,73.00
2019-01-30T15:36:21.487Z,72.70
2019-01-30T15:38:52.410Z,73.33
2019-01-30T15:41:23.368Z,72.87
2019-01-30T15:43:54.267Z,72.74
2019-01-30T15:46:25.255Z,72.38
2019-01-30T15:48:56.200Z,71.96
2019-01-30T15:51:27.407Z,71.93
2019-01-30T15:53:58.365Z,71.73
2019-01-30T15:56:29.326Z,71.83
2019-01-30T15:59:00.342Z,72.26
2019-01-30T16:01:39.673Z,71.50
2019-01-30T16:04:10.689Z,71.24
2019-01-30T16:06:41.751Z,71.22
2019-01-30T16:09:15.007Z,71.63
2019-01-30T16:11:45.897Z,71.76
2019-01-30T16:14:18.264Z,72.41
2019-01-30T16:16:49.334Z,72.05
2019-01-30T16:19:20.277Z,72.27
2019-01-30T16:21:51.279Z,72.07
2019-01-30T16:24:22.497Z,72.01
2019-01-30T16:26:53.734Z,72.33
2019-01-30T16:29:24.691Z,72.46
2019-01-30T16:31:55.987Z,72.62
2019-01-30T16:34:27.321Z,72.44
2019-01-30T16:36:58.313Z,72.03
2019-01-30T16:39:29.284Z,72.64
2019-01-30T16:42:00.249Z,72.59
2019-01-30T16:44:31.239Z,72.87
2019-01-30T16:47:02.584Z,72.65
2019-01-30T16:49:33.484Z,72.56
2019-01-30T16:52:04.544Z,72.51
2019-01-30T16:54:35.849Z,73.12
2019-01-30T16:57:06.887Z,73.11
2019-01-30T16:59:38.002Z,73.07
2019-01-30T17:02:08.955Z,73.06
2019-01-30T17:04:39.903Z,72.35
2019-01-30T17:07:10.980Z,72.92
2019-01-30T17:09:41.942Z,73.16
2019-01-30T17:12:12.948Z,73.14
2019-01-30T17:14:45.489Z,73.08
2019-01-30T17:17:16.745Z,73.03
2019-01-30T17:19:47.801Z,73.15
2019-01-30T17:22:18.809Z,73.49
2019-01-30T17:24:49.820Z,73.55
2019-01-30T17:27:21.641Z,73.32
2019-01-30T17:29:52.648Z,73.85
2019-01-30T17:32:23.578Z,73.54
2019-01-30T17:34:54.785Z,73.54
2019-01-30T17:37:25.885Z,73.69
2019-01-30T17:39:56.878Z,73.46
2019-01-30T17:42:28.132Z,73.72
2019-01-30T17:44:59.054Z,73.62
2019-01-30T17:47:30.076Z,73.50
2019-01-30T17:50:01.047Z,73.59
2019-01-30T17:52:32.052Z,73.89
2019-01-30T17:55:04.455Z,73.69
2019-01-30T17:57:35.554Z,73.69
2019-01-30T18:00:16.848Z,73.73
2019-01-30T18:02:47.874Z,73.66
2019-01-30T18:05:19.160Z,73.80
2019-01-30T18:07:50.199Z,73.96
2019-01-30T18:10:21.339Z,74.33
2019-01-30T18:12:52.434Z,74.11
2019-01-30T18:15:23.433Z,74.05
2019-01-30T18:17:54.563Z,74.21
2019-01-30T18:20:25.768Z,74.34
2019-01-30T18:22:56.700Z,74.60
2019-01-30T18:25:27.665Z,74.21
2019-01-30T18:27:58.625Z,74.35
2019-01-30T18:30:29.664Z,74.38
2019-01-30T18:33:00.717Z,73.89
2019-01-30T18:35:31.971Z,74.06
2019-01-30T18:38:03.112Z,73.83
2019-01-30T18:40:34.542Z,73.91
2019-01-30T18:43:06.192Z,74.16
2019-01-30T18:45:37.211Z,74.40
2019-01-30T18:48:08.269Z,74.20
2019-01-30T18:50:39.724Z,74.13
2019-01-30T18:53:10.950Z,74.57
2019-01-30T18:55:41.871Z,74.48
2019-01-30T18:58:12.887Z,74.30
2019-01-30T19:00:45.344Z,74.55
2019-01-30T19:03:19.022Z,74.43
2019-01-30T19:05:50.557Z,74.16
2019-01-30T19:08:21.969Z,74.61
2019-01-30T19:10:52.894Z,74.63
2019-01-30T19:13:23.846Z,74.63
2019-01-30T19:15:55.944Z,74.71
2019-01-30T19:18:27.963Z,74.48
2019-01-30T19:20:59.022Z,74.59
2019-01-30T19:23:30.390Z,74.54
2019-01-30T19:26:02.543Z,74.84
2019-01-30T19:28:33.513Z,74.48
2019-01-30T19:31:04.551Z,74.49
2019-01-30T19:33:35.872Z,75.01
2019-01-30T19:36:09.211Z,74.56
2019-01-30T19:38:40.538Z,75.07
2019-01-30T19:41:11.529Z,74.71
2019-01-30T19:43:42.773Z,74.80
2019-01-30T19:46:13.728Z,75.03
2019-01-30T19:48:44.657Z,75.06
2019-01-30T19:51:17.799Z,75.01
2019-01-30T19:53:48.758Z,75.44
2019-01-30T19:56:20.000Z,75.24
2019-01-30T19:58:50.998Z,75.48
2019-01-30T20:01:23.875Z,75.54
2019-01-30T20:03:55.144Z,75.06
2019-01-30T20:06:26.366Z,74.68
2019-01-30T20:08:57.660Z,74.88
2019-01-30T20:11:28.964Z,74.89
2019-01-30T20:14:05.039Z,75.15
2019-01-30T20:16:36.037Z,75.03
2019-01-30T20:19:07.355Z,75.72
2019-01-30T20:21:38.671Z,75.57
2019-01-30T20:24:09.651Z,75.71
2019-01-30T20:26:41.228Z,75.99
2019-01-30T20:29:12.461Z,75.69
2019-01-30T20:31:45.461Z,75.94
2019-01-30T20:34:16.432Z,76.02
2019-01-30T20:36:47.711Z,76.09
2019-01-30T20:39:18.667Z,76.28
2019-01-30T20:41:51.638Z,76.30
2019-01-30T20:44:22.642Z,76.50
2019-01-30T20:46:53.935Z,76.61
2019-01-30T20:49:28.425Z,76.87
2019-01-30T20:52:00.637Z,76.59
2019-01-30T20:54:32.881Z,76.72
2019-01-30T20:57:03.880Z,76.34
2019-01-30T20:59:35.241Z,76.61
2019-01-30T21:02:06.485Z,76.80
2019-01-30T21:04:37.715Z,77.44
2019-01-30T21:07:08.697Z,77.40
2019-01-30T21:09:39.816Z,77.89
2019-01-30T21:12:10.795Z,77.50
2019-01-30T21:14:41.756Z,78.00
2019-01-30T21:17:12.774Z,77.77
2019-01-30T21:19:43.897Z,77.91
2019-01-30T21:22:16.777Z,78.59
2019-01-30T21:24:47.739Z,78.78
2019-01-30T21:27:18.777Z,78.85
2019-01-30T21:29:51.128Z,79.17
2019-01-30T21:32:22.193Z,79.41
2019-01-30T21:34:53.413Z,79.87
2019-01-30T21:37:24.418Z,79.98
2019-01-30T21:39:56.194Z,80.24
2019-01-30T21:42:27.533Z,80.88
2019-01-30T21:44:58.520Z,80.39
2019-01-30T21:47:29.509Z,81.04
2019-01-30T21:50:00.497Z,81.15
2019-01-30T21:52:31.817Z,81.42
2019-01-30T21:55:04.615Z,81.44
2019-01-30T21:57:35.621Z,81.49
2019-01-30T22:00:10.758Z,81.55
2019-01-30T22:02:41.687Z,81.27
2019-01-30T22:05:12.614Z,81.63
2019-01-30T22:07:43.539Z,81.91
2019-01-30T22:10:24.393Z,82.30
2019-01-30T22:12:55.457Z,82.64
2019-01-30T22:15:26.796Z,82.81
2019-01-30T22:17:57.808Z,82.68
2019-01-30T22:20:29.205Z,83.09
2019-01-30T22:23:00.545Z,83.39
2019-01-30T22:25:31.478Z,83.45
2019-01-30T22:28:02.420Z,83.57
2019-01-30T22:30:35.947Z,83.72
2019-01-30T22:33:07.736Z,83.78
2019-01-30T22:35:38.843Z,83.63
2019-01-30T22:38:12.646Z,83.03
2019-01-30T22:40:42.465Z,82.57
2019-01-30T22:43:13.404Z,82.10
2019-01-30T22:45:44.363Z,81.35
2019-01-30T22:48:15.561Z,80.61
2019-01-30T22:50:46.552Z,80.31
2019-01-30T22:53:17.520Z,79.98
2019-01-30T22:55:48.444Z,79.75
2019-01-30T22:58:19.534Z,80.15
2019-01-30T23:01:13.251Z,80.11
2019-01-30T23:04:38.775Z,80.38
2019-01-30T23:07:56.742Z,80.26
2019-01-30T23:11:42.652Z,80.45
2019-01-30T23:14:24.935Z,80.80
2019-01-30T23:17:35.337Z,80.80
2019-01-30T23:20:28.410Z,81.06
2019-01-30T23:23:16.276Z,81.14
2019-01-30T23:26:27.988Z,81.29
2019-01-30T23:30:10.833Z,81.47
2019-01-30T23:33:44.254Z,81.26
2019-01-30T23:37:39.229Z,81.49
2019-01-30T23:40:50.283Z,81.48
2019-01-30T23:44:00.497Z,81.54
2019-01-30T23:47:20.897Z,81.45
2019-01-30T23:50:23.688Z,81.25
2019-01-30T23:54:12.525Z,80.94
2019-01-30T23:57:52.792Z,80.38
